Time;durP1;ratioP1;P1;durP2;ratioP2;P2;SDS_P1;SDS_P2;PMS_P1;PMS_P2;Temp;Humidity;BMP_temperature;BMP_pressure;BME280_temperature;BME280_humidity;BME280_pressure;Samples;Min_cycle;Max_cycle;Signal;HPM_P1;HPM_P2
2021/10/11 00:02:16;;;;;;;17.57;8.63;;;1.10;99.90;0.70;101408.00;;;;4937049;28;110336;-64
2021/10/11 00:04:42;;;;;;;13.57;8.33;;;1.00;99.90;0.70;101410.00;;;;4918941;28;92747;-63
2021/10/11 00:07:08;;;;;;;15.47;8.67;;;1.00;99.90;0.70;101419.00;;;;4938203;28;89954;-63
2021/10/11 00:09:35;;;;;;;13.57;8.33;;;1.00;99.90;0.70;101417.00;;;;4937825;28;88052;-64
2021/10/11 00:12:02;;;;;;;11.63;7.33;;;1.10;99.90;0.60;101411.00;;;;4938200;28;87735;-64
2021/10/11 00:14:28;;;;;;;9.27;7.27;;;1.00;99.90;0.60;101411.00;;;;4937462;28;87854;-64
2021/10/11 00:16:54;;;;;;;16.33;8.00;;;1.00;99.90;0.60;101404.00;;;;4937677;28;87958;-65
2021/10/11 00:19:19;;;;;;;11.13;6.80;;;0.90;99.90;0.50;101397.00;;;;4919623;28;97390;-64
2021/10/11 00:21:45;;;;;;;8.97;7.23;;;0.90;99.90;0.50;101392.00;;;;4937508;28;87741;-63
2021/10/11 00:24:11;;;;;;;16.53;8.53;;;0.90;99.90;0.50;101386.00;;;;4937669;28;87464;-64
2021/10/11 00:26:37;;;;;;;12.33;7.87;;;0.80;99.90;0.50;101383.00;;;;4936376;28;97433;-66
2021/10/11 00:29:04;;;;;;;8.97;7.00;;;0.80;99.90;0.50;101390.00;;;;4937566;28;89234;-64
2021/10/11 00:31:30;;;;;;;14.13;7.77;;;1.30;99.90;0.50;101386.00;;;;4937770;28;87644;-65
2021/10/11 00:33:56;;;;;;;12.73;7.93;;;0.80;99.90;0.40;101388.00;;;;4936462;28;93460;-64
2021/10/11 00:36:23;;;;;;;10.53;6.73;;;0.80;99.90;0.40;101398.00;;;;4936599;28;88726;-65
2021/10/11 00:38:49;;;;;;;11.50;8.30;;;0.80;99.90;0.40;101398.00;;;;4937140;28;89090;-65
2021/10/11 00:41:15;;;;;;;14.03;7.23;;;1.00;99.90;0.40;101392.00;;;;4947419;28;93890;-64
2021/10/11 00:43:41;;;;;;;13.83;7.43;;;0.70;99.90;0.30;101390.00;;;;4943973;28;108230;-64
2021/10/11 00:46:08;;;;;;;9.67;7.80;;;1.20;99.90;0.30;101375.00;;;;4936737;28;89077;-64
2021/10/11 00:48:35;;;;;;;11.57;7.87;;;0.70;99.90;0.30;101387.00;;;;4937747;28;87527;-64
2021/10/11 00:51:03;;;;;;;14.37;6.47;;;0.60;99.90;0.20;101386.00;;;;4937439;28;88686;-65
2021/10/11 00:53:29;;;;;;;13.47;8.47;;;0.60;99.90;0.20;101373.00;;;;4937123;28;90338;-65
2021/10/11 00:55:55;;;;;;;13.33;6.90;;;0.60;99.90;0.20;101376.00;;;;4918238;28;98610;-64
2021/10/11 00:58:21;;;;;;;11.00;6.37;;;0.40;99.90;0.20;101368.00;;;;4898955;28;118699;-64
2021/10/11 01:00:46;;;;;;;11.10;7.63;;;0.50;99.90;0.10;101371.00;;;;4930733;28;101798;-64
2021/10/11 01:03:12;;;;;;;11.20;6.37;;;0.70;99.90;0.10;101371.00;;;;4936585;28;107592;-64
2021/10/11 01:05:38;;;;;;;12.10;8.10;;;0.50;99.90;0.10;101366.00;;;;4935581;28;117697;-64
2021/10/11 01:08:04;;;;;;;10.87;7.33;;;0.40;99.90;0.00;101356.00;;;;4936198;28;118130;-65
2021/10/11 01:10:30;;;;;;;14.47;8.13;;;0.90;99.90;0.00;101359.00;;;;4936065;28;109100;-64
2021/10/11 01:12:56;;;;;;;11.40;6.77;;;0.40;99.90;0.00;101350.00;;;;4919339;28;88090;-64
2021/10/11 01:15:21;;;;;;;8.70;6.53;;;0.50;99.90;0.00;101343.00;;;;4935499;28;118812;-65
2021/10/11 01:17:47;;;;;;;12.50;6.87;;;0.30;99.90;-0.10;101347.00;;;;4935680;28;115362;-64
2021/10/11 01:20:13;;;;;;;11.60;7.37;;;0.30;99.90;-0.10;101343.00;;;;4935717;28;109972;-64
2021/10/11 01:22:42;;;;;;;9.87;6.57;;;0.30;99.90;-0.10;101343.00;;;;4936587;28;100703;-64
2021/10/11 01:25:13;;;;;;;12.03;6.90;;;0.20;99.90;-0.10;101341.00;;;;4918198;28;87932;-64
2021/10/11 01:27:39;;;;;;;10.80;6.83;;;0.20;99.90;-0.10;101356.00;;;;4936534;28;89002;-64
2021/10/11 01:30:09;;;;;;;8.97;6.17;;;0.20;99.90;-0.10;101347.00;;;;4937002;28;87653;-64
2021/10/11 01:32:35;;;;;;;7.23;5.73;;;0.20;99.90;-0.10;101349.00;;;;4937383;28;87140;-64
2021/10/11 01:35:01;;;;;;;13.47;7.37;;;0.20;99.90;-0.10;101356.00;;;;4936646;28;88644;-64
2021/10/11 01:37:27;;;;;;;8.63;5.87;;;0.20;99.90;-0.10;101352.00;;;;4936590;28;103258;-64
2021/10/11 01:39:53;;;;;;;9.90;6.33;;;0.20;99.90;-0.20;101357.00;;;;4935947;28;88751;-64
2021/10/11 01:42:18;;;;;;;10.17;6.93;;;0.20;99.90;-0.20;101355.00;;;;4936073;28;109279;-65
2021/10/11 01:44:44;;;;;;;10.33;7.20;;;0.50;99.90;-0.20;101337.00;;;;4934951;28;117213;-65
2021/10/11 01:47:10;;;;;;;12.47;7.20;;;0.20;99.90;-0.20;101345.00;;;;4930569;28;117102;-64
2021/10/11 01:49:35;;;;;;;8.23;6.53;;;0.20;99.90;-0.20;101344.00;;;;4935023;28;111627;-64
2021/10/11 01:52:01;;;;;;;10.03;6.70;;;0.20;99.90;-0.30;101336.00;;;;4936703;28;87792;-65
2021/10/11 01:54:27;;;;;;;12.07;6.57;;;0.00;99.90;-0.30;101334.00;;;;4936074;28;98330;-65
2021/10/11 01:56:53;;;;;;;7.67;6.10;;;0.20;99.90;-0.30;101323.00;;;;4935939;28;98317;-64
2021/10/11 01:59:18;;;;;;;8.47;5.43;;;0.20;99.90;-0.40;101323.00;;;;4935801;28;110577;-64
2021/10/11 02:01:44;;;;;;;13.00;6.63;;;0.00;99.90;-0.40;101320.00;;;;4935765;28;109459;-64
2021/10/11 02:04:10;;;;;;;9.30;6.30;;;0.00;99.90;-0.40;101316.00;;;;4934683;28;120180;-64
2021/10/11 02:06:35;;;;;;;10.50;7.27;;;0.00;99.90;-0.40;101317.00;;;;4934806;28;117385;-64
2021/10/11 02:09:01;;;;;;;9.27;6.80;;;0.00;99.90;-0.40;101314.00;;;;4936754;28;87782;-64
2021/10/11 02:11:28;;;;;;;16.33;7.33;;;0.00;99.90;-0.40;101311.00;;;;4936283;28;87759;-64
2021/10/11 02:13:55;;;;;;;8.70;6.80;;;0.00;99.90;-0.40;101316.00;;;;4935514;28;87931;-64
2021/10/11 02:16:21;;;;;;;12.10;7.00;;;-0.10;99.90;-0.40;101307.00;;;;4935578;28;99834;-65
2021/10/11 02:18:47;;;;;;;10.20;6.70;;;0.00;99.90;-0.50;101307.00;;;;4901402;28;110464;-65
2021/10/11 02:21:13;;;;;;;7.90;6.53;;;0.70;99.90;-0.50;101312.00;;;;4917645;28;108284;-65
2021/10/11 02:23:38;;;;;;;10.80;7.03;;;-0.10;99.90;-0.50;101309.00;;;;4936392;28;88002;-64
2021/10/11 02:26:04;;;;;;;8.60;6.50;;;0.30;99.90;-0.50;101310.00;;;;4935257;28;100408;-65
2021/10/11 02:28:30;;;;;;;9.60;6.73;;;-0.20;99.90;-0.50;101298.00;;;;4934507;28;111608;-65
2021/10/11 02:30:56;;;;;;;10.53;7.20;;;-0.20;99.90;-0.60;101299.00;;;;4935664;28;87767;-65
2021/10/11 02:33:21;;;;;;;9.80;6.37;;;-0.20;99.90;-0.60;101306.00;;;;4916368;28;97800;-64
2021/10/11 02:35:47;;;;;;;11.87;5.97;;;-0.10;99.90;-0.60;101298.00;;;;4915942;28;117811;-65
2021/10/11 02:38:13;;;;;;;8.80;6.17;;;0.30;99.90;-0.60;101294.00;;;;4933879;28;110700;-65
2021/10/11 02:40:39;;;;;;;8.13;4.87;;;-0.20;99.90;-0.60;101299.00;;;;4935441;28;108239;-65
2021/10/11 02:43:05;;;;;;;11.83;6.63;;;0.40;99.90;-0.60;101300.00;;;;4917246;28;88953;-65
2021/10/11 02:45:31;;;;;;;9.23;6.00;;;-0.30;99.90;-0.60;101290.00;;;;4936093;28;89520;-65
2021/10/11 02:47:56;;;;;;;10.57;6.60;;;-0.20;99.90;-0.50;101289.00;;;;4934497;28;111871;-65
2021/10/11 02:50:22;;;;;;;11.10;7.87;;;-0.20;99.90;-0.60;101284.00;;;;4935086;28;109325;-65
2021/10/11 02:52:48;;;;;;;11.27;7.03;;;0.00;99.90;-0.60;101289.00;;;;4934602;28;118207;-65
2021/10/11 02:55:13;;;;;;;11.60;7.13;;;-0.10;99.90;-0.60;101273.00;;;;4934830;28;118902;-65
2021/10/11 02:57:39;;;;;;;10.00;7.20;;;-0.20;99.90;-0.60;101257.00;;;;4917997;28;89582;-65
2021/10/11 03:00:06;;;;;;;7.33;5.17;;;0.10;99.90;-0.60;101266.00;;;;4919987;28;109356;-65
2021/10/11 03:02:33;;;;;;;11.70;7.00;;;-0.30;99.90;-0.60;101255.00;;;;4938750;28;94414;-65
2021/10/11 03:04:59;;;;;;;8.83;6.17;;;-0.20;99.90;-0.60;101250.00;;;;4939005;28;87818;-65
2021/10/11 03:07:24;;;;;;;14.40;7.23;;;-0.30;99.90;-0.60;101261.00;;;;4943009;28;92595;-65
2021/10/11 03:09:50;;;;;;;8.97;6.57;;;-0.20;99.90;-0.70;101253.00;;;;4921657;28;86993;-64
2021/10/11 03:12:16;;;;;;;8.93;6.40;;;-0.30;99.90;-0.70;101247.00;;;;4937257;28;117392;-65
2021/10/11 03:14:41;;;;;;;10.40;6.53;;;-0.30;99.90;-0.60;101237.00;;;;4938235;28;116462;-65
2021/10/11 03:17:07;;;;;;;11.97;6.97;;;-0.30;99.90;-0.60;101232.00;;;;4937342;28;108207;-65
2021/10/11 03:19:33;;;;;;;10.43;7.03;;;0.00;99.90;-0.60;101231.00;;;;4938020;28;107283;-65
2021/10/11 03:21:59;;;;;;;8.17;6.10;;;0.10;99.90;-0.60;101224.00;;;;4938653;28;87982;-65
2021/10/11 03:24:25;;;;;;;11.97;6.87;;;-0.30;99.90;-0.60;101225.00;;;;4937970;28;116971;-65
2021/10/11 03:26:51;;;;;;;6.87;5.47;;;-0.20;99.90;-0.60;101226.00;;;;4937906;28;110386;-65
2021/10/11 03:29:17;;;;;;;12.13;6.73;;;-0.20;99.90;-0.60;101234.00;;;;4937654;28;109331;-65
2021/10/11 03:31:43;;;;;;;8.37;6.27;;;0.40;99.90;-0.60;101214.00;;;;4937956;28;87857;-65
2021/10/11 03:34:11;;;;;;;8.80;6.50;;;-0.30;99.90;-0.60;101214.00;;;;4938814;28;88223;-65
2021/10/11 03:36:40;;;;;;;9.53;6.73;;;-0.20;99.90;-0.60;101209.00;;;;4938176;28;87799;-64
2021/10/11 03:39:07;;;;;;;11.33;6.70;;;-0.30;99.90;-0.60;101205.00;;;;4919941;28;88266;-65
2021/10/11 03:41:34;;;;;;;9.83;6.47;;;-0.30;99.90;-0.60;101200.00;;;;4938034;28;88868;-64
2021/10/11 03:44:03;;;;;;;9.30;6.93;;;-0.30;99.90;-0.60;101198.00;;;;4937051;28;118808;-64
2021/10/11 03:46:30;;;;;;;11.80;6.47;;;-0.30;99.90;-0.60;101197.00;;;;4938575;28;87833;-64
2021/10/11 03:48:56;;;;;;;9.07;5.93;;;-0.20;99.90;-0.60;101197.00;;;;4937968;28;88271;-64
2021/10/11 03:51:21;;;;;;;10.37;6.70;;;-0.30;99.90;-0.60;101196.00;;;;4937011;28;119647;-64
2021/10/11 03:53:50;;;;;;;8.77;6.40;;;-0.40;99.90;-0.60;101212.00;;;;4937974;28;88880;-64
2021/10/11 03:56:16;;;;;;;12.17;6.87;;;-0.30;99.90;-0.60;101191.00;;;;4937577;28;90497;-64
2021/10/11 03:58:42;;;;;;;13.97;7.03;;;-0.30;99.90;-0.60;101198.00;;;;4937688;28;108606;-64
2021/10/11 04:01:08;;;;;;;11.73;6.07;;;-0.20;99.90;-0.60;101191.00;;;;4937096;28;117672;-66
2021/10/11 04:03:34;;;;;;;9.77;5.60;;;-0.10;99.90;-0.50;101195.00;;;;4903153;28;101631;-65
2021/10/11 04:06:00;;;;;;;12.57;6.93;;;-0.20;99.90;-0.50;101190.00;;;;4937430;28;88840;-64
2021/10/11 04:08:37;;;;;;;9.13;6.10;;;-0.10;99.90;-0.40;101185.00;;;;4937791;28;87561;-64
2021/10/11 04:11:11;;;;;;;11.47;6.23;;;-0.10;99.90;-0.40;101181.00;;;;4937769;28;89018;-64
2021/10/11 04:13:38;;;;;;;8.97;6.27;;;0.00;99.90;-0.30;101181.00;;;;4920464;28;88572;-64
2021/10/11 04:16:06;;;;;;;9.07;6.13;;;0.00;99.90;-0.30;101180.00;;;;4939391;28;87835;-64
2021/10/11 04:18:31;;;;;;;11.30;6.53;;;0.10;99.90;-0.20;101173.00;;;;4938703;28;87815;-64
2021/10/11 04:20:57;;;;;;;11.07;6.30;;;0.10;99.90;-0.20;101168.00;;;;4937239;28;96874;-64
2021/10/11 04:23:23;;;;;;;12.77;6.87;;;0.10;99.90;-0.10;101174.00;;;;4937499;28;100115;-64
2021/10/11 04:25:49;;;;;;;8.73;5.40;;;0.60;99.90;-0.10;101177.00;;;;4935093;28;110789;-64
2021/10/11 04:28:15;;;;;;;9.00;5.80;;;0.20;99.90;-0.10;101181.00;;;;4936709;28;108574;-64
2021/10/11 04:30:42;;;;;;;8.43;6.07;;;0.20;99.90;0.00;101190.00;;;;4936819;28;89781;-64
2021/10/11 04:33:09;;;;;;;8.60;6.03;;;0.30;99.90;0.00;101200.00;;;;4937514;28;89313;-64
2021/10/11 04:35:35;;;;;;;12.80;7.07;;;0.40;99.90;0.00;101199.00;;;;4937365;28;87934;-64
2021/10/11 04:38:01;;;;;;;8.57;6.13;;;0.30;99.90;0.00;101197.00;;;;4937481;28;87671;-64
2021/10/11 04:40:26;;;;;;;8.67;6.37;;;0.30;99.90;0.00;101201.00;;;;4937923;28;88949;-64
2021/10/11 04:42:53;;;;;;;14.73;7.33;;;0.80;99.90;0.00;101197.00;;;;4936148;28;117273;-65
2021/10/11 04:45:18;;;;;;;11.63;6.80;;;1.00;99.90;0.00;101195.00;;;;4937631;28;87745;-64
2021/10/11 04:47:44;;;;;;;9.87;7.03;;;0.70;99.90;0.00;101200.00;;;;4937348;28;95538;-64
2021/10/11 04:50:10;;;;;;;9.73;6.07;;;0.30;99.90;-0.10;101189.00;;;;4936739;28;114185;-64
2021/10/11 04:52:36;;;;;;;12.30;5.80;;;0.30;99.90;-0.10;101202.00;;;;4936956;28;116476;-63
2021/10/11 04:55:02;;;;;;;9.67;6.97;;;0.30;99.90;0.00;101194.00;;;;4935631;28;89256;-64
2021/10/11 04:57:28;;;;;;;10.83;6.03;;;0.30;99.90;0.00;101195.00;;;;4925390;28;87951;-64
2021/10/11 04:59:53;;;;;;;12.97;6.90;;;0.30;99.90;0.10;101192.00;;;;4924087;28;118107;-64
2021/10/11 05:02:19;;;;;;;12.07;7.83;;;0.60;99.90;0.10;101194.00;;;;4937796;28;117806;-64
2021/10/11 05:04:45;;;;;;;13.77;7.10;;;0.40;99.90;0.10;101189.00;;;;4937014;28;101050;-65
2021/10/11 05:07:11;;;;;;;11.37;7.37;;;0.40;99.90;0.20;101180.00;;;;4935856;28;108538;-64
2021/10/11 05:09:36;;;;;;;9.93;7.23;;;0.50;99.90;0.20;101185.00;;;;4935914;28;87982;-64
2021/10/11 05:12:02;;;;;;;12.67;7.90;;;0.30;99.90;0.20;101188.00;;;;4933974;28;117323;-64
2021/10/11 05:14:28;;;;;;;10.53;7.13;;;0.50;99.90;0.30;101183.00;;;;4933484;28;94506;-64
2021/10/11 05:16:55;;;;;;;8.00;6.57;;;0.60;99.90;0.30;101190.00;;;;4932829;28;108962;-64
2021/10/11 05:19:27;;;;;;;8.90;6.40;;;0.60;99.90;0.40;101185.00;;;;4933675;28;89293;-64
2021/10/11 05:21:54;;;;;;;9.87;7.17;;;0.70;99.90;0.40;101198.00;;;;4932320;28;89302;-64
2021/10/11 05:24:23;;;;;;;11.50;7.13;;;0.70;99.90;0.50;101209.00;;;;4934061;28;87720;-64
2021/10/11 05:26:53;;;;;;;9.63;6.80;;;0.80;99.90;0.60;101196.00;;;;4922680;28;88126;-64
2021/10/11 05:29:20;;;;;;;18.57;7.03;;;0.80;99.90;0.70;101202.00;;;;4913963;28;89029;-65
2021/10/11 05:31:46;;;;;;;11.90;7.00;;;0.90;99.90;0.70;101198.00;;;;4915098;28;96392;-64
2021/10/11 05:34:13;;;;;;;7.70;6.13;;;0.90;99.90;0.80;101216.00;;;;4922996;28;87727;-64
2021/10/11 05:36:40;;;;;;;9.73;6.77;;;1.10;99.90;0.80;101205.00;;;;4917950;28;89977;-64
2021/10/11 05:39:06;;;;;;;12.30;5.83;;;1.00;99.90;0.80;101205.00;;;;4914256;28;88597;-64
2021/10/11 05:41:32;;;;;;;8.57;5.57;;;1.10;99.90;0.90;101205.00;;;;4915023;28;88894;-64
2021/10/11 05:43:57;;;;;;;11.10;6.90;;;1.10;99.90;0.90;101200.00;;;;4929375;28;110680;-65
2021/10/11 05:46:23;;;;;;;11.63;6.67;;;1.20;99.90;1.00;101207.00;;;;4917398;28;108436;-65
2021/10/11 05:48:49;;;;;;;13.10;6.43;;;1.20;99.90;1.10;101197.00;;;;4917448;28;117493;-64
2021/10/11 05:51:15;;;;;;;15.00;7.07;;;1.40;99.90;1.20;101203.00;;;;4917248;28;117550;-64
2021/10/11 05:53:40;;;;;;;9.77;7.17;;;1.50;99.90;1.30;101199.00;;;;4915117;28;88223;-65
2021/10/11 05:56:06;;;;;;;11.43;6.30;;;1.60;99.90;1.30;101198.00;;;;4916574;28;90546;-64
2021/10/11 05:58:32;;;;;;;10.03;6.07;;;1.70;99.90;1.40;101201.00;;;;4918533;28;88462;-64
2021/10/11 06:00:58;;;;;;;13.33;5.80;;;1.70;99.90;1.50;101208.00;;;;4935751;28;88818;-64
2021/10/11 06:03:24;;;;;;;10.30;6.23;;;1.70;99.90;1.60;101194.00;;;;4936770;28;88911;-64
2021/10/11 06:05:52;;;;;;;8.83;4.93;;;1.80;99.90;1.70;101194.00;;;;4935484;28;108251;-65
2021/10/11 06:08:19;;;;;;;8.87;5.93;;;1.80;99.90;1.70;101203.00;;;;4935258;28;90658;-65
2021/10/11 06:10:44;;;;;;;8.53;6.23;;;2.00;99.90;1.80;101203.00;;;;4918060;28;88238;-65
2021/10/11 06:13:11;;;;;;;10.03;6.30;;;2.10;99.90;1.90;101204.00;;;;4935493;28;91057;-65
2021/10/11 06:15:37;;;;;;;9.57;6.73;;;2.10;99.90;2.00;101206.00;;;;4935838;28;91433;-65
2021/10/11 06:18:03;;;;;;;13.17;7.53;;;2.10;99.90;2.00;101196.00;;;;4935290;28;88238;-64
2021/10/11 06:20:29;;;;;;;8.63;5.13;;;2.20;99.90;2.10;101203.00;;;;4935904;28;88246;-64
2021/10/11 06:22:54;;;;;;;11.87;6.20;;;2.30;99.90;2.20;101195.00;;;;4935854;28;94847;-65
2021/10/11 06:25:20;;;;;;;9.00;6.40;;;2.40;99.90;2.20;101189.00;;;;4935939;28;93132;-64
2021/10/11 06:27:46;;;;;;;10.10;7.20;;;2.40;99.90;2.30;101208.00;;;;4935344;28;89099;-65
2021/10/11 06:30:12;;;;;;;8.50;6.00;;;2.50;99.90;2.40;101207.00;;;;4935076;28;87788;-65
2021/10/11 06:32:39;;;;;;;8.40;5.73;;;2.60;99.90;2.40;101212.00;;;;4928688;28;110458;-65
2021/10/11 06:35:05;;;;;;;9.27;5.03;;;2.70;99.90;2.50;101201.00;;;;4920247;28;87781;-64
2021/10/11 06:37:31;;;;;;;10.80;5.80;;;2.70;99.90;2.60;101212.00;;;;4933081;28;100681;-66
2021/10/11 06:39:57;;;;;;;10.57;6.43;;;2.80;99.90;2.60;101208.00;;;;4938521;28;87631;-64
2021/10/11 06:42:22;;;;;;;8.70;5.93;;;2.80;99.90;2.70;101213.00;;;;4938342;28;111159;-65
2021/10/11 06:44:48;;;;;;;12.03;5.87;;;2.90;99.90;2.80;101217.00;;;;4938414;28;89255;-66
2021/10/11 06:47:14;;;;;;;11.53;7.07;;;2.90;99.90;2.90;101225.00;;;;4939136;28;87620;-65
2021/10/11 06:49:42;;;;;;;8.63;5.90;;;3.00;99.90;2.90;101224.00;;;;4938111;28;117579;-66
2021/10/11 06:52:08;;;;;;;8.63;6.70;;;3.10;99.90;3.00;101232.00;;;;4939681;28;87986;-65
2021/10/11 06:54:34;;;;;;;8.47;5.33;;;3.10;99.90;3.10;101228.00;;;;4943240;28;88690;-66
2021/10/11 06:56:59;;;;;;;8.50;5.80;;;3.20;99.90;3.10;101233.00;;;;4937963;28;89991;-65
2021/10/11 06:59:25;;;;;;;13.17;7.17;;;3.30;99.90;3.20;101227.00;;;;4919484;28;108144;-65
2021/10/11 07:01:51;;;;;;;9.47;6.03;;;3.40;99.90;3.30;101233.00;;;;4938218;28;110756;-65
2021/10/11 07:04:17;;;;;;;6.47;5.77;;;3.40;99.90;3.40;101236.00;;;;4903428;28;108536;-64
2021/10/11 07:06:43;;;;;;;10.17;6.23;;;3.60;99.90;3.50;101225.00;;;;4938497;28;89239;-65
2021/10/11 07:09:08;;;;;;;9.97;6.63;;;3.50;99.90;3.50;101225.00;;;;4920179;28;99657;-64
2021/10/11 07:11:34;;;;;;;10.33;6.03;;;3.70;99.90;3.60;101232.00;;;;4938094;28;104204;-64
2021/10/11 07:14:00;;;;;;;10.53;6.70;;;3.70;99.90;3.70;101235.00;;;;4938711;28;109444;-64
2021/10/11 07:16:26;;;;;;;11.20;6.13;;;3.80;99.90;3.80;101239.00;;;;4937524;28;117953;-65
2021/10/11 07:18:52;;;;;;;12.67;7.97;;;3.90;99.90;3.90;101226.00;;;;4938185;28;87693;-64
2021/10/11 07:21:17;;;;;;;11.30;7.33;;;4.00;99.90;4.00;101217.00;;;;4937474;28;110936;-64
2021/10/11 07:23:43;;;;;;;9.10;5.50;;;4.10;99.90;4.10;101221.00;;;;4937621;28;107522;-64
2021/10/11 07:26:09;;;;;;;9.60;5.70;;;4.20;99.90;4.20;101227.00;;;;4936271;28;118153;-64
2021/10/11 07:28:35;;;;;;;11.47;5.90;;;4.30;99.90;4.30;101219.00;;;;4936406;28;117308;-64
2021/10/11 07:31:01;;;;;;;10.23;5.57;;;4.40;99.90;4.50;101222.00;;;;4918480;28;87880;-64
2021/10/11 07:33:27;;;;;;;9.90;5.43;;;4.60;99.90;4.60;101221.00;;;;4937383;28;87842;-64
2021/10/11 07:35:53;;;;;;;10.00;5.63;;;4.70;99.90;4.70;101219.00;;;;4936203;28;118200;-66
2021/10/11 07:38:20;;;;;;;11.03;5.60;;;4.80;99.90;4.90;101212.00;;;;4919267;28;87313;-64
2021/10/11 07:40:46;;;;;;;9.43;5.87;;;4.90;99.90;5.00;101207.00;;;;4937556;28;87550;-64
2021/10/11 07:43:12;;;;;;;7.40;5.33;;;5.00;99.90;5.20;101209.00;;;;4936766;28;87795;-64
2021/10/11 07:45:38;;;;;;;7.27;4.83;;;5.20;99.90;5.30;101206.00;;;;4935804;28;111174;-65
2021/10/11 07:48:04;;;;;;;8.30;4.47;;;5.40;99.90;5.50;101202.00;;;;4935445;28;118455;-65
2021/10/11 07:50:30;;;;;;;9.07;6.07;;;5.50;99.90;5.60;101214.00;;;;4935120;28;110995;-65
2021/10/11 07:52:56;;;;;;;8.70;6.10;;;5.70;99.90;5.80;101206.00;;;;4936818;28;87770;-64
2021/10/11 07:55:22;;;;;;;7.97;5.57;;;5.80;99.90;5.90;101213.00;;;;4936394;28;116817;-65
2021/10/11 07:57:48;;;;;;;18.60;7.87;;;6.00;99.90;6.10;101221.00;;;;4917494;28;110257;-65
2021/10/11 08:00:20;;;;;;;12.13;7.27;;;6.10;99.90;6.20;101222.00;;;;4936989;28;87906;-64
2021/10/11 08:02:46;;;;;;;10.00;6.90;;;6.30;99.90;6.40;101215.00;;;;4937502;28;86946;-64
2021/10/11 08:05:15;;;;;;;10.80;7.47;;;6.40;99.90;6.60;101219.00;;;;4936372;28;88723;-64
2021/10/11 08:07:44;;;;;;;10.03;6.57;;;6.60;99.90;6.80;101227.00;;;;4935613;28;117642;-64
2021/10/11 08:10:11;;;;;;;11.17;6.37;;;6.80;99.90;6.90;101226.00;;;;4936051;28;88763;-65
2021/10/11 08:12:38;;;;;;;8.70;5.67;;;6.90;99.90;7.10;101231.00;;;;4936991;28;87732;-64
2021/10/11 08:15:06;;;;;;;8.17;5.67;;;7.60;99.90;7.20;101225.00;;;;4935072;28;117805;-65
2021/10/11 08:17:32;;;;;;;10.57;6.07;;;7.20;99.90;7.40;101224.00;;;;4936611;28;87830;-65
2021/10/11 08:19:57;;;;;;;7.07;4.80;;;7.40;99.90;7.50;101237.00;;;;4918272;28;88250;-65
2021/10/11 08:22:23;;;;;;;9.33;5.27;;;7.50;99.90;7.60;101227.00;;;;4935734;28;108839;-64
2021/10/11 08:24:51;;;;;;;7.13;5.40;;;7.70;99.90;7.80;101236.00;;;;4936162;28;87664;-65
2021/10/11 08:27:18;;;;;;;6.57;4.33;;;7.80;99.90;7.90;101237.00;;;;4897781;28;1141071;-65
2021/10/11 08:29:51;;;;;;;9.10;4.30;;;7.90;99.90;8.00;101236.00;;;;4937438;28;88055;-65
2021/10/11 08:32:17;;;;;;;7.30;5.10;;;8.00;99.90;8.10;101240.00;;;;4937628;28;87787;-64
2021/10/11 08:34:43;;;;;;;7.67;3.87;;;8.10;99.90;8.20;101245.00;;;;4936376;28;89583;-65
2021/10/11 08:37:09;;;;;;;8.57;4.87;;;8.30;99.90;8.30;101241.00;;;;4936584;28;117843;-64
2021/10/11 08:39:36;;;;;;;10.47;4.07;;;8.30;99.90;8.30;101242.00;;;;4936041;28;109851;-65
2021/10/11 08:42:04;;;;;;;8.43;4.57;;;8.40;99.90;8.40;101241.00;;;;4937392;28;87975;-64
2021/10/11 08:44:30;;;;;;;8.73;4.70;;;8.40;99.90;8.50;101237.00;;;;4936900;28;87572;-66
2021/10/11 08:46:56;;;;;;;8.83;4.30;;;8.50;99.90;8.50;101234.00;;;;4936480;28;88300;-64
2021/10/11 08:49:22;;;;;;;7.93;3.83;;;8.50;99.90;8.60;101231.00;;;;4935650;28;111369;-65
2021/10/11 08:51:48;;;;;;;5.07;3.93;;;8.60;99.90;8.70;101236.00;;;;4936394;28;107825;-65
2021/10/11 08:54:14;;;;;;;7.40;3.23;;;8.70;99.90;8.80;101233.00;;;;4934780;28;118507;-66
2021/10/11 08:56:39;;;;;;;8.17;5.50;;;8.80;99.90;8.90;101218.00;;;;4917858;28;89631;-64
2021/10/11 08:59:05;;;;;;;7.90;4.47;;;8.90;99.90;9.00;101223.00;;;;4935536;28;110113;-64
2021/10/11 09:01:32;;;;;;;6.97;5.10;;;9.00;99.90;9.20;101216.00;;;;4936247;28;108904;-65
2021/10/11 09:04:03;;;;;;;11.53;5.53;;;9.10;99.90;9.50;101216.00;;;;4936647;28;87843;-65
2021/10/11 09:06:29;;;;;;;8.17;6.03;;;9.40;99.90;9.80;101215.00;;;;4917762;28;88578;-66
2021/10/11 09:08:54;;;;;;;8.60;4.60;;;9.70;99.90;10.10;101215.00;;;;4918017;28;105519;-64
2021/10/11 09:11:20;;;;;;;7.67;5.17;;;10.00;99.90;10.20;101211.00;;;;4936616;28;87740;-65
2021/10/11 09:13:53;;;;;;;7.00;5.17;;;10.10;99.90;10.40;101218.00;;;;4935206;28;118815;-64
2021/10/11 09:17:04;;;;;;;7.03;5.47;;;10.30;99.90;10.70;101218.00;;;;4919563;28;87908;-65
2021/10/11 09:19:27;;;;;;;8.40;5.13;;;10.60;99.90;10.90;101223.00;;;;4930743;28;88237;-65
2021/10/11 09:21:53;;;;;;;8.70;5.43;;;10.80;99.90;11.20;101213.00;;;;4937489;28;87748;-66
2021/10/11 09:24:21;;;;;;;9.53;5.80;;;11.10;99.90;11.60;101218.00;;;;4936076;28;100312;-65
2021/10/11 09:26:51;;;;;;;13.17;6.10;;;11.40;99.90;11.90;101206.00;;;;4936460;28;88421;-65
2021/10/11 09:29:31;;;;;;;8.07;5.10;;;11.70;99.90;12.10;101215.00;;;;4936568;28;87762;-65
2021/10/11 09:32:08;;;;;;;7.13;5.07;;;11.90;99.90;12.20;101216.00;;;;4936508;28;87764;-64
2021/10/11 09:34:36;;;;;;;8.57;6.63;;;12.10;99.10;12.30;101223.00;;;;4935520;28;89119;-65
2021/10/11 09:37:08;;;;;;;9.60;5.40;;;12.20;99.10;12.40;101222.00;;;;4917781;28;88369;-64
2021/10/11 09:39:38;;;;;;;10.17;6.17;;;12.30;98.70;12.50;101217.00;;;;4936755;28;87995;-65
2021/10/11 09:42:08;;;;;;;9.47;5.10;;;12.40;97.90;12.60;101220.00;;;;4936844;28;87103;-65
2021/10/11 09:44:33;;;;;;;7.90;5.63;;;12.50;97.40;12.60;101209.00;;;;4935954;28;89174;-65
2021/10/11 09:49:28;;;;;;;9.27;5.87;;;12.60;96.80;12.70;101215.00;;;;4934660;28;88676;-65
2021/10/11 09:51:55;;;;;;;7.83;5.30;;;12.60;96.80;12.80;101215.00;;;;4935774;28;108297;-64
2021/10/11 09:54:24;;;;;;;12.23;5.53;;;12.70;97.10;12.90;101201.00;;;;4935864;28;95562;-65
2021/10/11 09:56:50;;;;;;;8.37;5.30;;;12.80;97.00;13.10;101210.00;;;;4935718;28;87768;-66
2021/10/11 09:59:16;;;;;;;10.63;5.17;;;12.90;96.80;13.20;101204.00;;;;4935311;28;104547;-64
2021/10/11 10:01:46;;;;;;;10.43;5.73;;;13.00;96.30;13.30;101205.00;;;;4917956;28;87829;-66
2021/10/11 10:04:22;;;;;;;11.23;6.03;;;13.10;95.20;13.30;101214.00;;;;4935777;28;88911;-66
2021/10/11 10:06:49;;;;;;;8.27;5.10;;;13.20;95.10;13.40;101215.00;;;;4917234;28;98793;-64
2021/10/11 10:09:18;;;;;;;7.43;6.23;;;13.30;95.40;13.60;101207.00;;;;4917886;28;87708;-65
2021/10/11 10:11:44;;;;;;;8.37;6.80;;;13.50;94.90;13.70;101205.00;;;;4936151;28;88834;-65
2021/10/11 10:14:25;;;;;;;14.47;7.60;;;13.60;94.30;13.70;101216.00;;;;4917093;28;90155;-65
2021/10/11 10:16:53;;;;;;;12.03;6.93;;;13.60;93.20;13.60;101207.00;;;;4936090;28;88993;-65
2021/10/11 10:19:21;;;;;;;14.33;6.70;;;13.60;93.20;13.50;101207.00;;;;4917892;28;87802;-65
2021/10/11 10:21:48;;;;;;;10.10;6.53;;;13.50;93.00;13.40;101209.00;;;;4901348;28;88050;-66
2021/10/11 10:24:25;;;;;;;12.20;6.97;;;13.40;93.30;13.20;101212.00;;;;4917658;28;88994;-65
2021/10/11 10:27:06;;;;;;;14.97;6.90;;;13.20;93.60;13.10;101210.00;;;;4936030;28;88063;-65
2021/10/11 10:29:49;;;;;;;10.97;6.53;;;13.10;94.10;13.00;101213.00;;;;4935409;28;88484;-64
2021/10/11 10:32:19;;;;;;;11.83;6.80;;;13.00;94.50;12.90;101209.00;;;;4935766;28;86933;-63
2021/10/11 10:34:57;;;;;;;12.87;7.10;;;13.00;94.90;12.80;101201.00;;;;4935334;28;89255;-65
2021/10/11 10:37:37;;;;;;;8.50;6.77;;;12.80;95.30;12.70;101213.00;;;;4917475;28;90252;-64
2021/10/11 10:40:09;;;;;;;12.13;6.60;;;12.70;95.70;12.60;101218.00;;;;4935255;28;88710;-65
2021/10/11 10:42:35;;;;;;;17.63;7.30;;;12.60;96.10;12.50;101206.00;;;;4936121;28;87797;-66
2021/10/11 10:45:01;;;;;;;12.80;7.00;;;12.60;96.70;12.40;101209.00;;;;4916472;28;99473;-65
2021/10/11 10:47:36;;;;;;;8.67;6.47;;;12.50;97.40;12.30;101215.00;;;;4936068;28;88715;-64
2021/10/11 10:50:10;;;;;;;13.27;7.10;;;12.40;98.30;12.20;101201.00;;;;4935174;28;87718;-65
2021/10/11 10:52:35;;;;;;;13.90;7.93;;;12.30;99.00;12.20;101208.00;;;;4918052;28;87922;-64